createdAt,value
2022-09-30T00:01:40.694Z,100.00
2022-09-30T00:04:11.111Z,100.00
2022-09-30T00:06:39.082Z,100.00
2022-09-30T00:09:07.246Z,100.00
2022-09-30T00:11:39.263Z,100.00
2022-09-30T00:14:13.416Z,100.00
2022-09-30T00:16:41.408Z,100.00
2022-09-30T00:19:09.731Z,100.00
2022-09-30T00:21:37.676Z,100.00
2022-09-30T00:24:08.375Z,100.00
2022-09-30T00:26:37.213Z,100.00
2022-09-30T00:29:06.089Z,100.00
2022-09-30T00:31:36.510Z,100.00
2022-09-30T00:34:08.643Z,100.00
2022-09-30T00:36:39.223Z,100.00
2022-09-30T00:39:09.856Z,100.00
2022-09-30T00:41:38.743Z,100.00
2022-09-30T00:44:44.482Z,100.00
2022-09-30T00:47:31.430Z,100.00
2022-09-30T00:50:02.846Z,100.00
2022-09-30T00:52:32.721Z,100.00
2022-09-30T00:55:03.180Z,100.00
2022-09-30T00:57:31.690Z,100.00
2022-09-30T00:59:59.772Z,100.00
2022-09-30T01:02:29.412Z,100.00
2022-09-30T01:04:58.024Z,100.00
2022-09-30T01:07:26.175Z,100.00
2022-09-30T01:09:54.311Z,100.00
2022-09-30T01:12:26.007Z,100.00
2022-09-30T01:14:58.014Z,100.00
2022-09-30T01:17:37.854Z,100.00
2022-09-30T01:20:24.540Z,100.00
2022-09-30T01:23:08.339Z,100.00
2022-09-30T01:25:55.890Z,100.00
2022-09-30T01:28:52.499Z,100.00
2022-09-30T01:31:41.682Z,100.00
2022-09-30T01:34:17.931Z,100.00
2022-09-30T01:37:00.557Z,100.00
2022-09-30T01:39:39.606Z,100.00
2022-09-30T01:42:14.712Z,100.00
2022-09-30T01:44:53.432Z,100.00
2022-09-30T01:47:27.456Z,100.00
2022-09-30T01:50:00.641Z,100.00
2022-09-30T01:52:34.666Z,100.00
2022-09-30T01:55:08.128Z,100.00
2022-09-30T01:57:44.920Z,100.00
2022-09-30T02:00:15.254Z,100.00
2022-09-30T02:02:50.005Z,100.00
2022-09-30T02:05:22.785Z,100.00
2022-09-30T02:07:55.481Z,100.00
2022-09-30T02:10:28.236Z,100.00
2022-09-30T02:12:59.419Z,100.00
2022-09-30T02:15:36.405Z,100.00
2022-09-30T02:18:19.744Z,100.00
2022-09-30T02:20:52.106Z,100.00
2022-09-30T02:23:26.378Z,100.00
2022-09-30T02:26:00.325Z,100.00
2022-09-30T02:28:30.327Z,100.00
2022-09-30T02:31:01.521Z,100.00
2022-09-30T02:33:35.903Z,100.00
2022-09-30T02:36:08.027Z,100.00
2022-09-30T02:38:41.953Z,100.00
2022-09-30T02:41:15.066Z,100.00
2022-09-30T02:43:43.316Z,100.00
2022-09-30T02:46:19.490Z,100.00
2022-09-30T02:48:55.941Z,100.00
2022-09-30T02:51:33.794Z,100.00
2022-09-30T02:54:06.310Z,100.00
2022-09-30T02:56:45.796Z,100.00
2022-09-30T02:59:14.680Z,100.00
2022-09-30T03:01:44.014Z,100.00
2022-09-30T03:04:17.255Z,100.00
2022-09-30T03:06:45.332Z,100.00
2022-09-30T03:09:13.571Z,100.00
2022-09-30T03:11:42.081Z,100.00
2022-09-30T03:14:33.026Z,100.00
2022-09-30T03:17:17.139Z,100.00
2022-09-30T03:20:06.719Z,100.00
2022-09-30T03:22:55.720Z,100.00
2022-09-30T03:25:36.238Z,100.00
2022-09-30T03:28:16.223Z,100.00
2022-09-30T03:30:49.826Z,100.00
2022-09-30T03:33:24.096Z,100.00
2022-09-30T03:36:01.372Z,100.00
2022-09-30T03:38:43.524Z,100.00
2022-09-30T03:41:17.702Z,100.00
2022-09-30T03:43:51.382Z,100.00
2022-09-30T03:46:24.346Z,100.00
2022-09-30T03:48:56.059Z,100.00
2022-09-30T03:51:25.886Z,100.00
2022-09-30T03:53:55.317Z,100.00
2022-09-30T03:56:27.397Z,100.00
2022-09-30T03:58:55.462Z,100.00
2022-09-30T04:01:24.456Z,100.00
2022-09-30T04:03:54.739Z,100.00
2022-09-30T04:06:25.854Z,100.00
2022-09-30T04:08:54.788Z,100.00
2022-09-30T04:11:22.856Z,100.00
2022-09-30T04:13:50.826Z,100.00
2022-09-30T04:16:18.999Z,100.00
2022-09-30T04:18:47.044Z,100.00
2022-09-30T04:21:16.117Z,100.00
2022-09-30T04:23:45.366Z,100.00
2022-09-30T04:26:15.118Z,100.00
2022-09-30T04:28:43.197Z,100.00
2022-09-30T04:31:12.843Z,100.00
2022-09-30T04:33:41.205Z,100.00
2022-09-30T04:36:09.526Z,100.00
2022-09-30T04:38:37.618Z,100.00
2022-09-30T04:41:08.039Z,100.00
2022-09-30T04:43:36.156Z,100.00
2022-09-30T04:46:04.673Z,100.00
2022-09-30T04:48:32.842Z,100.00
2022-09-30T04:51:01.078Z,100.00
2022-09-30T04:53:29.244Z,100.00
2022-09-30T04:56:00.940Z,100.00
2022-09-30T04:58:36.725Z,100.00
2022-09-30T05:01:06.839Z,100.00
2022-09-30T05:03:35.262Z,100.00
2022-09-30T05:06:04.019Z,100.00
2022-09-30T05:08:33.814Z,100.00
2022-09-30T05:11:02.737Z,100.00
2022-09-30T05:13:35.032Z,100.00
2022-09-30T05:16:03.793Z,100.00
2022-09-30T05:18:33.948Z,100.00
2022-09-30T05:21:03.055Z,100.00
2022-09-30T05:23:32.869Z,100.00
2022-09-30T05:26:01.003Z,100.00
2022-09-30T05:28:31.171Z,100.00
2022-09-30T05:31:02.650Z,100.00
2022-09-30T05:33:31.448Z,100.00
2022-09-30T05:36:01.690Z,100.00
2022-09-30T05:38:29.900Z,100.00
2022-09-30T05:40:58.005Z,100.00
2022-09-30T05:43:26.081Z,100.00
2022-09-30T05:45:55.386Z,100.00
2022-09-30T05:48:26.226Z,100.00
2022-09-30T05:50:55.464Z,100.00
2022-09-30T05:53:23.888Z,100.00
2022-09-30T05:55:52.072Z,100.00
2022-09-30T05:58:21.329Z,100.00
2022-09-30T06:00:50.287Z,100.00
2022-09-30T06:03:19.054Z,100.00
2022-09-30T06:05:48.351Z,100.00
2022-09-30T06:08:17.065Z,100.00
2022-09-30T06:10:46.536Z,100.00
2022-09-30T06:13:14.789Z,100.00
2022-09-30T06:15:42.711Z,100.00
2022-09-30T06:18:15.808Z,100.00
2022-09-30T06:20:45.712Z,100.00
2022-09-30T06:23:15.081Z,100.00
2022-09-30T06:25:44.566Z,100.00
2022-09-30T06:28:12.805Z,100.00
2022-09-30T06:30:40.964Z,100.00
2022-09-30T06:33:08.904Z,100.00
2022-09-30T06:35:37.007Z,100.00
2022-09-30T06:38:05.239Z,100.00
2022-09-30T06:40:34.647Z,100.00
2022-09-30T06:43:03.146Z,100.00
2022-09-30T06:45:33.288Z,100.00
2022-09-30T06:48:02.930Z,100.00
2022-09-30T06:50:31.738Z,100.00
2022-09-30T06:53:00.135Z,100.00
2022-09-30T06:55:28.580Z,100.00
2022-09-30T06:57:58.456Z,100.00
2022-09-30T07:00:28.599Z,100.00
2022-09-30T07:02:56.818Z,100.00
2022-09-30T07:05:26.390Z,100.00
2022-09-30T07:07:55.000Z,100.00
2022-09-30T07:10:23.137Z,100.00
2022-09-30T07:12:51.935Z,100.00
2022-09-30T07:15:22.086Z,100.00
2022-09-30T07:17:53.389Z,100.00
2022-09-30T07:20:21.378Z,100.00
2022-09-30T07:22:49.257Z,100.00
2022-09-30T07:25:17.951Z,100.00
2022-09-30T07:27:46.719Z,100.00
2022-09-30T07:30:23.969Z,100.00
2022-09-30T07:32:55.526Z,100.00
2022-09-30T07:35:23.599Z,100.00
2022-09-30T07:37:51.606Z,100.00
2022-09-30T07:40:19.588Z,100.00
2022-09-30T07:42:47.522Z,100.00
2022-09-30T07:45:16.904Z,100.00
2022-09-30T07:47:46.639Z,100.00
2022-09-30T07:50:19.113Z,100.00
2022-09-30T07:52:47.113Z,100.00
2022-09-30T07:55:15.263Z,100.00
2022-09-30T07:57:43.243Z,100.00
2022-09-30T08:00:40.506Z,100.00
2022-09-30T08:03:00.151Z,100.00
2022-09-30T08:05:29.482Z,100.00
2022-09-30T08:07:57.497Z,100.00
2022-09-30T08:10:25.500Z,100.00
2022-09-30T08:12:56.057Z,100.00
2022-09-30T08:15:27.118Z,100.00
2022-09-30T08:17:55.187Z,100.00
2022-09-30T08:20:23.218Z,100.00
2022-09-30T08:22:54.911Z,100.00
2022-09-30T08:25:23.301Z,100.00
2022-09-30T08:27:51.912Z,100.00
2022-09-30T08:30:19.768Z,100.00
2022-09-30T08:32:47.671Z,100.00
2022-09-30T08:35:15.667Z,100.00
2022-09-30T08:37:43.713Z,100.00
2022-09-30T08:40:20.977Z,100.00
2022-09-30T08:43:10.133Z,100.00
2022-09-30T08:45:52.312Z,100.00
2022-09-30T08:48:33.970Z,100.00
2022-09-30T08:51:15.874Z,100.00
2022-09-30T08:53:47.407Z,100.00
2022-09-30T08:56:23.219Z,100.00
2022-09-30T08:58:57.956Z,100.00
2022-09-30T09:01:32.811Z,100.00
2022-09-30T09:04:03.604Z,100.00
2022-09-30T09:06:38.446Z,100.00
2022-09-30T09:09:37.015Z,100.00
2022-09-30T09:12:15.546Z,100.00
2022-09-30T09:14:56.903Z,100.00
2022-09-30T09:17:37.909Z,100.00
2022-09-30T09:20:14.389Z,100.00
2022-09-30T09:22:44.369Z,100.00
2022-09-30T09:25:15.464Z,100.00
2022-09-30T09:27:52.534Z,100.00
2022-09-30T09:30:22.887Z,100.00
2022-09-30T09:32:55.174Z,100.00
2022-09-30T09:35:34.968Z,100.00
2022-09-30T09:38:26.320Z,100.00
2022-09-30T09:41:08.968Z,100.00
2022-09-30T09:43:51.287Z,100.00
2022-09-30T09:46:26.045Z,100.00
2022-09-30T09:49:29.704Z,100.00
2022-09-30T09:52:24.145Z,100.00
2022-09-30T09:54:56.596Z,100.00
2022-09-30T09:57:27.763Z,100.00
2022-09-30T10:02:34.331Z,100.00
2022-09-30T10:05:03.850Z,100.00
2022-09-30T10:07:33.657Z,100.00
2022-09-30T10:10:13.498Z,100.00
2022-09-30T10:12:42.473Z,100.00
2022-09-30T10:15:22.184Z,100.00
2022-09-30T10:17:54.045Z,100.00
2022-09-30T10:20:28.814Z,100.00
2022-09-30T10:23:10.108Z,100.00
2022-09-30T10:25:38.124Z,100.00
2022-09-30T10:28:24.903Z,100.00
2022-09-30T10:30:58.008Z,100.00
2022-09-30T10:33:31.880Z,100.00
2022-09-30T10:36:14.669Z,100.00
2022-09-30T10:39:04.099Z,100.00
2022-09-30T10:41:37.841Z,100.00
2022-09-30T10:44:13.368Z,100.00
2022-09-30T10:46:45.591Z,100.00
2022-09-30T10:49:32.118Z,100.00
2022-09-30T10:52:05.055Z,100.00
2022-09-30T10:54:47.002Z,100.00
2022-09-30T10:57:17.104Z,100.00
2022-09-30T10:59:46.654Z,98.37
2022-09-30T11:02:26.051Z,100.00
2022-09-30T11:05:03.740Z,100.00
2022-09-30T11:07:40.559Z,94.10
2022-09-30T11:10:23.637Z,85.83
2022-09-30T11:13:01.074Z,92.03
2022-09-30T11:15:32.863Z,88.05
2022-09-30T11:18:08.347Z,90.98
2022-09-30T11:20:41.929Z,85.51
2022-09-30T11:23:20.473Z,81.33
2022-09-30T11:25:55.068Z,73.77
2022-09-30T11:28:44.050Z,94.28
2022-09-30T11:31:23.306Z,77.35
2022-09-30T11:34:06.602Z,73.02
2022-09-30T11:36:43.173Z,70.26
2022-09-30T11:39:27.022Z,70.45
2022-09-30T11:42:02.113Z,64.34
2022-09-30T11:44:35.367Z,65.71
2022-09-30T11:47:24.382Z,66.13
2022-09-30T11:50:16.177Z,72.13
2022-09-30T11:52:56.528Z,70.83
2022-09-30T11:55:38.259Z,68.02
2022-09-30T11:58:29.022Z,71.59
2022-09-30T12:01:08.789Z,70.41
2022-09-30T12:03:43.356Z,72.41
2022-09-30T12:06:19.358Z,67.53
2022-09-30T12:08:52.864Z,68.85
2022-09-30T12:11:28.743Z,69.18
2022-09-30T12:14:01.939Z,69.28
2022-09-30T12:16:33.150Z,71.81
2022-09-30T12:19:12.704Z,68.34
2022-09-30T12:21:50.868Z,64.67
2022-09-30T12:24:26.406Z,68.25
2022-09-30T12:26:55.300Z,74.84
2022-09-30T12:29:47.589Z,73.52
2022-09-30T12:33:10.710Z,75.30
2022-09-30T12:36:02.766Z,77.29
2022-09-30T12:38:49.652Z,77.04
2022-09-30T12:41:39.049Z,80.65
2022-09-30T12:44:18.745Z,78.49
2022-09-30T12:46:55.719Z,74.28
2022-09-30T12:49:27.681Z,75.24
2022-09-30T12:51:58.095Z,75.14
2022-09-30T12:54:32.040Z,75.42
2022-09-30T12:57:03.841Z,80.59
2022-09-30T12:59:34.918Z,89.15
2022-09-30T13:02:06.208Z,83.96
2022-09-30T13:04:36.638Z,88.46
2022-09-30T13:07:14.465Z,97.35
2022-09-30T13:10:03.331Z,86.08
2022-09-30T13:12:43.118Z,83.72
2022-09-30T13:15:40.103Z,89.55
2022-09-30T13:18:46.073Z,87.29
2022-09-30T13:21:24.797Z,70.26
2022-09-30T13:23:54.581Z,65.41
2022-09-30T13:26:37.413Z,61.48
2022-09-30T13:29:48.390Z,63.99
2022-09-30T13:32:33.782Z,63.37
2022-09-30T13:35:02.026Z,63.44
2022-09-30T13:37:37.746Z,74.88
2022-09-30T13:40:14.006Z,63.37
2022-09-30T13:42:51.420Z,57.55
2022-09-30T13:45:24.347Z,54.60
2022-09-30T13:48:03.455Z,57.01
2022-09-30T13:50:34.460Z,53.94
2022-09-30T13:53:06.760Z,52.95
2022-09-30T13:55:41.062Z,55.70
2022-09-30T13:58:30.131Z,61.04
2022-09-30T14:01:04.243Z,58.90
2022-09-30T14:03:50.192Z,55.04
2022-09-30T14:06:32.135Z,53.72
2022-09-30T14:09:41.072Z,52.72
2022-09-30T14:12:23.080Z,54.12
2022-09-30T14:15:18.091Z,53.58
2022-09-30T14:18:09.602Z,50.80
2022-09-30T14:20:49.529Z,49.65
2022-09-30T14:23:20.157Z,49.90
2022-09-30T14:25:57.816Z,50.23
2022-09-30T14:28:34.605Z,49.17
2022-09-30T14:31:13.048Z,50.46
2022-09-30T14:33:42.605Z,51.61
2022-09-30T14:36:15.650Z,51.29
2022-09-30T14:38:46.936Z,52.28
2022-09-30T14:41:20.697Z,52.87
2022-09-30T14:43:52.802Z,54.23
2022-09-30T14:46:30.513Z,59.29
2022-09-30T14:49:04.430Z,59.23
2022-09-30T14:51:38.350Z,59.44
2022-09-30T14:54:16.451Z,65.16
2022-09-30T14:56:44.934Z,68.29
2022-09-30T14:59:18.762Z,63.39
2022-09-30T15:01:51.213Z,63.23
2022-09-30T15:04:22.994Z,60.94
2022-09-30T15:06:53.051Z,62.11
2022-09-30T15:09:24.770Z,62.51
2022-09-30T15:11:52.900Z,62.90
2022-09-30T15:14:23.252Z,63.07
2022-09-30T15:16:54.345Z,63.90
2022-09-30T15:19:25.270Z,63.31
2022-09-30T15:21:55.747Z,59.88
2022-09-30T15:24:27.235Z,60.71
2022-09-30T15:26:57.087Z,61.46
2022-09-30T15:29:24.998Z,61.72
2022-09-30T15:32:01.090Z,60.71
2022-09-30T15:34:30.405Z,61.38
2022-09-30T15:37:06.266Z,66.22
2022-09-30T15:39:54.978Z,65.88
2022-09-30T15:42:32.147Z,63.07
2022-09-30T15:45:00.276Z,64.92
2022-09-30T15:47:29.867Z,67.63
2022-09-30T15:49:58.029Z,67.94
2022-09-30T15:52:36.605Z,69.83
2022-09-30T15:55:36.655Z,75.43
2022-09-30T15:58:05.483Z,75.04
2022-09-30T16:00:39.969Z,76.50
2022-09-30T16:03:27.752Z,81.66
2022-09-30T16:06:07.033Z,86.00
2022-09-30T16:08:42.522Z,92.09
2022-09-30T16:11:10.969Z,97.51
2022-09-30T16:13:45.228Z,98.96
2022-09-30T16:16:21.371Z,100.00
2022-09-30T16:18:51.960Z,100.00
2022-09-30T16:21:40.459Z,100.00
2022-09-30T16:24:44.904Z,100.00
2022-09-30T16:27:26.083Z,100.00
2022-09-30T16:29:54.092Z,100.00
2022-09-30T16:32:22.576Z,100.00
2022-09-30T16:34:52.013Z,100.00
2022-09-30T16:37:22.066Z,100.00
2022-09-30T16:39:50.605Z,100.00
2022-09-30T16:42:20.145Z,100.00
2022-09-30T16:44:48.086Z,100.00
2022-09-30T16:47:17.535Z,100.00
2022-09-30T16:49:47.180Z,100.00
2022-09-30T16:52:17.326Z,100.00
2022-09-30T16:54:45.428Z,100.00
2022-09-30T16:57:15.882Z,100.00
2022-09-30T16:59:44.542Z,100.00
2022-09-30T17:02:15.497Z,100.00
2022-09-30T17:04:45.291Z,100.00
2022-09-30T17:07:17.583Z,100.00
2022-09-30T17:09:45.511Z,100.00
2022-09-30T17:12:13.833Z,100.00
2022-09-30T17:14:43.686Z,100.00
2022-09-30T17:17:13.730Z,100.00
2022-09-30T17:19:42.509Z,100.00
2022-09-30T17:22:10.439Z,100.00
2022-09-30T17:24:39.651Z,100.00
2022-09-30T17:27:07.773Z,100.00
2022-09-30T17:29:41.787Z,100.00
2022-09-30T17:32:10.556Z,100.00
2022-09-30T17:34:38.933Z,100.00
2022-09-30T17:39:36.059Z,100.00
2022-09-30T17:42:23.018Z,100.00
2022-09-30T17:44:52.400Z,100.00
2022-09-30T17:47:21.254Z,100.00
2022-09-30T17:49:49.401Z,100.00
2022-09-30T17:52:18.101Z,100.00
2022-09-30T17:54:51.101Z,100.00
2022-09-30T17:57:22.037Z,100.00
2022-09-30T17:59:50.132Z,100.00
2022-09-30T18:02:18.354Z,100.00
2022-09-30T18:04:46.524Z,100.00
2022-09-30T18:07:14.484Z,100.00
2022-09-30T18:09:42.424Z,100.00
2022-09-30T18:12:10.398Z,100.00
2022-09-30T18:14:39.672Z,100.00
2022-09-30T18:17:07.727Z,100.00
2022-09-30T18:19:36.113Z,100.00
2022-09-30T18:22:04.214Z,100.00
2022-09-30T18:24:50.154Z,100.00
2022-09-30T18:27:21.036Z,100.00
2022-09-30T18:29:50.558Z,100.00
2022-09-30T18:32:18.509Z,100.00
2022-09-30T18:34:46.596Z,100.00
2022-09-30T18:37:14.576Z,100.00
2022-09-30T18:39:42.560Z,100.00
2022-09-30T18:42:10.539Z,100.00
2022-09-30T18:44:38.519Z,100.00
2022-09-30T18:47:07.874Z,100.00
2022-09-30T18:49:36.049Z,100.00
2022-09-30T18:52:04.995Z,100.00
2022-09-30T18:54:33.638Z,100.00
2022-09-30T18:57:01.997Z,100.00
2022-09-30T18:59:30.065Z,100.00
2022-09-30T19:01:59.639Z,100.00
2022-09-30T19:04:29.028Z,100.00
2022-09-30T19:06:57.143Z,100.00
2022-09-30T19:09:26.539Z,100.00
2022-09-30T19:11:55.513Z,100.00
2022-09-30T19:14:24.557Z,100.00
2022-09-30T19:16:52.853Z,100.00
2022-09-30T19:19:23.095Z,100.00
2022-09-30T19:21:52.849Z,100.00
2022-09-30T19:24:25.322Z,100.00
2022-09-30T19:26:55.568Z,100.00
2022-09-30T19:29:23.512Z,100.00
2022-09-30T19:31:51.673Z,100.00
2022-09-30T19:34:30.880Z,100.00
2022-09-30T19:37:01.651Z,100.00
2022-09-30T19:39:41.549Z,100.00
2022-09-30T19:42:12.702Z,100.00
2022-09-30T19:44:41.819Z,100.00
2022-09-30T19:47:09.930Z,100.00
2022-09-30T19:49:38.018Z,100.00
2022-09-30T19:52:18.470Z,100.00
2022-09-30T19:54:48.330Z,100.00
2022-09-30T19:57:16.352Z,100.00
2022-09-30T19:59:45.034Z,100.00
2022-09-30T20:02:13.092Z,100.00
2022-09-30T20:04:43.703Z,100.00
2022-09-30T20:07:14.882Z,100.00
2022-09-30T20:09:43.596Z,100.00
2022-09-30T20:12:11.747Z,100.00
2022-09-30T20:14:57.495Z,100.00
2022-09-30T20:17:25.493Z,100.00
2022-09-30T20:20:07.391Z,100.00
2022-09-30T20:22:36.789Z,100.00
2022-09-30T20:25:05.628Z,100.00
2022-09-30T20:27:33.631Z,100.00
2022-09-30T20:30:01.755Z,100.00
2022-09-30T20:32:31.152Z,100.00
2022-09-30T20:34:59.267Z,100.00
2022-09-30T20:37:27.243Z,100.00
2022-09-30T20:39:57.590Z,100.00
2022-09-30T20:42:28.143Z,100.00
2022-09-30T20:45:01.001Z,100.00
2022-09-30T20:47:28.916Z,100.00
2022-09-30T20:49:58.377Z,100.00
2022-09-30T20:52:26.949Z,100.00
2022-09-30T20:55:00.333Z,100.00
2022-09-30T20:57:29.754Z,100.00
2022-09-30T20:59:58.363Z,100.00
2022-09-30T21:02:27.999Z,100.00
2022-09-30T21:04:57.699Z,100.00
2022-09-30T21:07:26.357Z,100.00
2022-09-30T21:09:55.751Z,100.00
2022-09-30T21:12:23.774Z,100.00
2022-09-30T21:14:51.665Z,100.00
2022-09-30T21:17:19.650Z,100.00
2022-09-30T21:19:47.568Z,100.00
2022-09-30T21:22:17.090Z,100.00
2022-09-30T21:24:45.152Z,100.00
2022-09-30T21:27:14.703Z,100.00
2022-09-30T21:29:43.584Z,100.00
2022-09-30T21:32:11.625Z,100.00
2022-09-30T21:34:39.715Z,100.00
2022-09-30T21:37:07.899Z,100.00
2022-09-30T21:39:35.806Z,100.00
2022-09-30T21:42:04.622Z,100.00
2022-09-30T21:44:33.870Z,100.00
2022-09-30T21:47:01.871Z,100.00
2022-09-30T21:49:29.802Z,100.00
2022-09-30T21:51:57.751Z,100.00
2022-09-30T21:54:25.721Z,100.00
2022-09-30T21:56:53.708Z,100.00
2022-09-30T21:59:21.670Z,100.00
2022-09-30T22:01:52.518Z,100.00
2022-09-30T22:04:20.517Z,100.00
2022-09-30T22:06:48.477Z,100.00
2022-09-30T22:09:16.858Z,100.00
2022-09-30T22:11:44.872Z,100.00
2022-09-30T22:14:12.961Z,100.00
2022-09-30T22:16:40.929Z,100.00
2022-09-30T22:19:10.242Z,100.00
2022-09-30T22:21:38.562Z,100.00
2022-09-30T22:24:07.962Z,100.00
2022-09-30T22:26:37.011Z,100.00
2022-09-30T22:29:07.502Z,100.00
2022-09-30T22:31:35.874Z,100.00
2022-09-30T22:34:23.500Z,100.00
2022-09-30T22:37:10.753Z,100.00
2022-09-30T22:39:38.770Z,100.00
2022-09-30T22:42:07.202Z,100.00
2022-09-30T22:44:38.154Z,100.00
2022-09-30T22:47:09.374Z,100.00
2022-09-30T22:49:37.291Z,100.00
2022-09-30T22:52:07.082Z,100.00
2022-09-30T22:54:36.157Z,100.00
2022-09-30T22:57:07.659Z,100.00
2022-09-30T22:59:36.234Z,100.00
2022-09-30T23:02:05.043Z,100.00
2022-09-30T23:04:33.349Z,100.00
2022-09-30T23:07:01.212Z,100.00
2022-09-30T23:09:31.118Z,100.00
2022-09-30T23:11:59.118Z,100.00
2022-09-30T23:14:27.062Z,100.00
2022-09-30T23:16:55.307Z,100.00
2022-09-30T23:19:23.262Z,100.00
2022-09-30T23:21:51.160Z,100.00
2022-09-30T23:24:19.426Z,100.00
2022-09-30T23:26:49.747Z,100.00
2022-09-30T23:29:17.810Z,100.00
2022-09-30T23:31:45.877Z,100.00
2022-09-30T23:34:14.108Z,100.00
2022-09-30T23:36:42.045Z,100.00
2022-09-30T23:39:18.098Z,100.00
2022-09-30T23:41:46.401Z,100.00
2022-09-30T23:44:17.742Z,100.00
2022-09-30T23:47:05.762Z,100.00
2022-09-30T23:49:35.228Z,100.00
2022-09-30T23:52:04.774Z,100.00
2022-09-30T23:54:32.919Z,100.00
2022-09-30T23:57:01.293Z,100.00
2022-09-30T23:59:31.106Z,100.00
